createdAt,value
2019-01-29T00:00:54.108Z,20.73
2019-01-29T00:05:58.174Z,20.73
2019-01-29T00:11:02.498Z,20.72
2019-01-29T00:16:06.820Z,20.74
2019-01-29T00:21:11.008Z,20.75
2019-01-29T00:26:15.167Z,20.73
2019-01-29T00:31:19.472Z,20.69
2019-01-29T00:36:23.779Z,20.76
2019-01-29T00:41:28.054Z,20.73
2019-01-29T00:46:32.242Z,20.71
2019-01-29T00:51:36.413Z,20.67
2019-01-29T00:56:40.670Z,20.58
2019-01-29T01:01:44.840Z,20.62
2019-01-29T01:06:49.142Z,20.62
2019-01-29T01:11:53.529Z,20.58
2019-01-29T01:16:57.719Z,20.52
2019-01-29T01:22:02.006Z,20.50
2019-01-29T01:27:06.324Z,20.46
2019-01-29T01:32:10.497Z,20.43
2019-01-29T01:37:14.795Z,20.41
2019-01-29T01:42:19.030Z,20.39
2019-01-29T01:47:23.258Z,20.37
2019-01-29T01:52:27.615Z,20.26
2019-01-29T01:57:31.931Z,20.32
2019-01-29T02:02:36.273Z,20.30
2019-01-29T02:07:40.532Z,20.30
2019-01-29T02:12:44.829Z,20.29
2019-01-29T02:17:49.084Z,20.16
2019-01-29T02:22:53.228Z,20.22
2019-01-29T02:27:57.347Z,20.20
2019-01-29T02:33:01.383Z,20.18
2019-01-29T02:38:05.527Z,20.15
2019-01-29T02:43:09.681Z,20.13
2019-01-29T02:48:13.900Z,20.12
2019-01-29T02:53:18.651Z,20.12
2019-01-29T02:58:22.879Z,20.10
2019-01-29T03:03:26.999Z,20.10
2019-01-29T03:08:31.265Z,20.08
2019-01-29T03:13:35.496Z,19.96
2019-01-29T03:18:39.720Z,20.03
2019-01-29T03:23:43.856Z,20.03
2019-01-29T03:28:47.987Z,20.01
2019-01-29T03:33:52.217Z,19.92
2019-01-29T03:38:56.282Z,19.92
2019-01-29T03:44:00.552Z,19.97
2019-01-29T03:49:05.072Z,19.95
2019-01-29T03:54:09.378Z,19.94
2019-01-29T03:59:13.516Z,19.94
2019-01-29T04:04:17.550Z,19.95
2019-01-29T04:09:21.669Z,19.82
2019-01-29T04:14:25.908Z,19.85
2019-01-29T04:19:30.211Z,19.83
2019-01-29T04:24:34.358Z,19.89
2019-01-29T04:29:38.538Z,19.88
2019-01-29T04:34:42.641Z,19.87
2019-01-29T04:39:46.952Z,19.88
2019-01-29T04:44:51.004Z,19.88
2019-01-29T04:49:55.098Z,19.87
2019-01-29T04:54:59.355Z,19.86
2019-01-29T05:00:03.655Z,19.84
2019-01-29T05:05:09.583Z,19.80
2019-01-29T05:10:14.094Z,19.79
2019-01-29T05:15:18.404Z,19.80
2019-01-29T05:20:23.292Z,19.78
2019-01-29T05:25:27.393Z,19.77
2019-01-29T05:30:31.468Z,19.69
2019-01-29T05:35:35.527Z,19.68
2019-01-29T05:40:39.543Z,19.68
2019-01-29T05:45:43.629Z,19.73
2019-01-29T05:50:47.782Z,19.71
2019-01-29T05:55:51.875Z,19.70
2019-01-29T06:00:55.920Z,19.69
2019-01-29T06:06:00.026Z,19.68
2019-01-29T06:11:04.158Z,19.68
2019-01-29T06:16:08.319Z,19.58
2019-01-29T06:21:12.329Z,19.64
2019-01-29T06:26:16.357Z,19.65
2019-01-29T06:31:20.481Z,19.64
2019-01-29T06:36:24.576Z,19.55
2019-01-29T06:41:28.661Z,19.55
2019-01-29T06:46:32.672Z,19.61
2019-01-29T06:51:36.700Z,19.51
2019-01-29T06:56:40.841Z,19.49
2019-01-29T07:01:44.859Z,19.47
2019-01-29T07:06:49.957Z,19.45
2019-01-29T07:12:02.021Z,13.29
2019-01-29T07:17:43.635Z,11.44
2019-01-29T07:22:47.660Z,15.53
2019-01-29T07:27:51.684Z,16.79
2019-01-29T07:32:55.811Z,17.31
2019-01-29T07:37:59.920Z,17.74
2019-01-29T07:43:04.102Z,17.74
2019-01-29T07:48:08.275Z,18.10
2019-01-29T07:53:12.727Z,18.21
2019-01-29T07:58:16.798Z,18.29
2019-01-29T08:03:20.825Z,18.37
2019-01-29T08:08:24.911Z,18.41
2019-01-29T08:13:28.987Z,18.47
2019-01-29T08:18:33.149Z,18.47
2019-01-29T08:23:37.184Z,18.50
2019-01-29T08:28:41.214Z,18.59
2019-01-29T08:33:45.219Z,18.59
2019-01-29T08:38:49.251Z,18.62
2019-01-29T08:43:53.323Z,18.62
2019-01-29T08:48:57.334Z,18.67
2019-01-29T08:54:01.408Z,18.67
2019-01-29T08:59:05.683Z,18.71
2019-01-29T09:04:09.789Z,18.71
2019-01-29T09:09:13.893Z,18.75
2019-01-29T09:14:17.990Z,18.78
2019-01-29T09:19:22.009Z,18.78
2019-01-29T09:24:26.042Z,18.79
2019-01-29T09:29:30.082Z,18.83
2019-01-29T09:34:34.109Z,18.88
2019-01-29T09:39:38.204Z,18.82
2019-01-29T09:44:42.262Z,18.91
2019-01-29T09:49:46.286Z,18.91
2019-01-29T09:54:50.323Z,18.94
2019-01-29T09:59:54.376Z,18.93
2019-01-29T10:04:58.475Z,18.94
2019-01-29T10:10:02.749Z,18.96
2019-01-29T10:15:09.201Z,18.93
2019-01-29T10:20:13.422Z,18.94
2019-01-29T10:25:17.745Z,18.94
2019-01-29T10:30:22.231Z,18.97
2019-01-29T10:35:27.015Z,18.98
2019-01-29T10:40:31.299Z,18.91
2019-01-29T10:45:35.583Z,18.91
2019-01-29T10:50:39.775Z,19.00
2019-01-29T10:55:47.479Z,19.00
2019-01-29T11:00:49.720Z,18.95
2019-01-29T11:05:53.759Z,18.95
2019-01-29T11:10:57.804Z,19.03
2019-01-29T11:16:01.845Z,19.05
2019-01-29T11:21:06.345Z,19.05
2019-01-29T11:26:10.545Z,19.07
2019-01-29T11:31:14.746Z,19.07
2019-01-29T11:36:18.853Z,19.08
2019-01-29T11:41:22.890Z,19.08
2019-01-29T11:46:27.004Z,19.12
2019-01-29T11:51:31.087Z,19.12
2019-01-29T11:56:35.130Z,19.11
2019-01-29T12:01:39.222Z,19.11
2019-01-29T12:06:43.239Z,19.11
2019-01-29T12:11:47.425Z,19.11
2019-01-29T12:16:51.518Z,19.10
2019-01-29T12:21:55.689Z,19.03
2019-01-29T12:26:59.952Z,19.12
2019-01-29T12:32:04.218Z,19.12
2019-01-29T12:37:08.381Z,19.12
2019-01-29T12:42:12.484Z,19.13
2019-01-29T12:47:16.821Z,19.12
2019-01-29T12:52:29.878Z,19.03
2019-01-29T12:57:34.042Z,19.03
2019-01-29T13:02:38.081Z,19.14
2019-01-29T13:07:42.199Z,19.12
2019-01-29T13:12:46.356Z,19.13
2019-01-29T13:17:50.545Z,19.03
2019-01-29T13:22:54.669Z,19.12
2019-01-29T13:27:58.683Z,19.02
2019-01-29T13:33:03.295Z,19.01
2019-01-29T13:38:08.349Z,19.10
2019-01-29T13:43:12.573Z,19.08
2019-01-29T13:48:16.884Z,19.09
2019-01-29T13:53:20.932Z,19.09
2019-01-29T13:58:25.121Z,19.11
2019-01-29T14:03:29.302Z,19.03
2019-01-29T14:08:33.408Z,19.14
2019-01-29T14:13:37.658Z,19.14
2019-01-29T14:18:42.931Z,19.14
2019-01-29T14:23:47.001Z,20.60
2019-01-29T14:28:51.136Z,20.99
2019-01-29T14:33:55.142Z,21.26
2019-01-29T14:39:32.124Z,21.26
2019-01-29T14:44:43.155Z,21.26
2019-01-29T14:49:47.257Z,21.26
2019-01-29T14:54:51.390Z,21.26
2019-01-29T14:59:55.405Z,21.21
2019-01-29T15:04:59.584Z,20.99
2019-01-29T15:10:03.832Z,20.93
2019-01-29T15:15:10.244Z,20.92
2019-01-29T15:20:14.526Z,20.92
2019-01-29T15:25:18.623Z,21.43
2019-01-29T15:30:25.387Z,21.52
2019-01-29T15:35:29.574Z,21.55
2019-01-29T15:40:33.660Z,21.34
2019-01-29T15:45:37.930Z,21.16
2019-01-29T15:50:42.236Z,20.97
2019-01-29T15:55:46.302Z,20.97
2019-01-29T16:00:50.415Z,21.08
2019-01-29T16:05:55.658Z,21.37
2019-01-29T16:10:59.681Z,21.53
2019-01-29T16:16:06.108Z,21.37
2019-01-29T16:21:10.704Z,21.48
2019-01-29T16:26:15.108Z,21.48
2019-01-29T16:31:19.299Z,21.25
2019-01-29T16:36:23.631Z,21.20
2019-01-29T16:41:27.869Z,21.09
2019-01-29T16:46:32.184Z,21.12
2019-01-29T16:51:42.192Z,21.07
2019-01-29T16:56:42.325Z,21.24
2019-01-29T17:01:46.350Z,21.40
2019-01-29T17:06:50.369Z,21.71
2019-01-29T17:11:54.408Z,21.99
2019-01-29T17:16:58.728Z,22.14
2019-01-29T17:22:05.407Z,22.27
2019-01-29T17:27:09.481Z,22.31
2019-01-29T17:32:13.584Z,22.31
2019-01-29T17:37:17.664Z,22.30
2019-01-29T17:42:21.692Z,22.57
2019-01-29T17:47:25.754Z,22.58
2019-01-29T17:52:29.916Z,22.60
2019-01-29T17:57:33.972Z,22.60
2019-01-29T18:02:38.061Z,22.54
2019-01-29T18:07:42.189Z,22.39
2019-01-29T18:12:46.485Z,22.22
2019-01-29T18:17:50.663Z,21.90
2019-01-29T18:22:55.122Z,21.69
2019-01-29T18:28:01.238Z,21.69
2019-01-29T18:33:05.725Z,21.45
2019-01-29T18:38:09.837Z,21.31
2019-01-29T18:43:13.996Z,21.19
2019-01-29T18:48:18.063Z,21.19
2019-01-29T18:53:22.099Z,21.06
2019-01-29T18:58:26.178Z,21.03
2019-01-29T19:03:30.237Z,21.03
2019-01-29T19:08:34.268Z,20.92
2019-01-29T19:13:38.277Z,20.80
2019-01-29T19:18:42.360Z,20.76
2019-01-29T19:23:46.391Z,20.82
2019-01-29T19:28:50.445Z,20.77
2019-01-29T19:33:54.482Z,20.77
2019-01-29T19:38:58.594Z,20.70
2019-01-29T19:44:02.687Z,20.70
2019-01-29T19:49:06.841Z,20.66
2019-01-29T19:54:10.924Z,20.66
2019-01-29T19:59:14.975Z,20.66
2019-01-29T20:04:19.153Z,20.61
2019-01-29T20:09:23.326Z,20.61
2019-01-29T20:14:27.437Z,20.54
2019-01-29T20:19:31.463Z,20.47
2019-01-29T20:24:35.505Z,20.53
2019-01-29T20:29:39.638Z,20.57
2019-01-29T20:34:43.777Z,20.52
2019-01-29T20:39:47.819Z,20.42
2019-01-29T20:44:51.992Z,20.51
2019-01-29T20:49:56.125Z,20.51
2019-01-29T20:55:00.303Z,20.50
2019-01-29T21:00:07.102Z,20.50
2019-01-29T21:05:11.311Z,20.48
2019-01-29T21:10:17.846Z,20.47
2019-01-29T21:15:22.973Z,20.47
2019-01-29T21:20:29.101Z,20.46
2019-01-29T21:25:33.266Z,20.46
2019-01-29T21:30:39.729Z,20.44
2019-01-29T21:35:43.757Z,20.41
2019-01-29T21:40:47.904Z,20.41
2019-01-29T21:45:52.206Z,20.40
2019-01-29T21:50:56.280Z,20.40
2019-01-29T21:56:00.374Z,20.40
2019-01-29T22:01:04.615Z,20.34
2019-01-29T22:06:08.865Z,20.35
2019-01-29T22:11:13.018Z,20.27
2019-01-29T22:16:17.125Z,20.35
2019-01-29T22:21:21.261Z,20.35
2019-01-29T22:26:25.402Z,20.32
2019-01-29T22:31:29.429Z,20.27
2019-01-29T22:36:33.663Z,20.30
2019-01-29T22:41:37.784Z,20.30
2019-01-29T22:46:41.815Z,20.29
2019-01-29T22:51:45.922Z,20.32
2019-01-29T22:56:50.119Z,20.28
2019-01-29T23:01:54.293Z,20.27
2019-01-29T23:07:07.805Z,20.25
2019-01-29T23:12:12.107Z,20.26
2019-01-29T23:17:16.245Z,20.26
2019-01-29T23:22:20.457Z,20.16
2019-01-29T23:27:24.548Z,20.21
2019-01-29T23:32:28.547Z,20.21
2019-01-29T23:37:32.695Z,20.23
2019-01-29T23:42:36.785Z,20.21
2019-01-29T23:47:40.993Z,20.19
2019-01-29T23:52:45.063Z,20.18
2019-01-29T23:57:49.118Z,20.16
